Time;durP1;ratioP1;P1;durP2;ratioP2;P2;SDS_P1;SDS_P2;PMS_P1;PMS_P2;Temp;Humidity;BMP_temperature;BMP_pressure;BME280_temperature;BME280_humidity;BME280_pressure;Samples;Min_cycle;Max_cycle;Signal;HPM_P1;HPM_P2
2021/10/27 00:01:46;;;;;;;19.08;13.32;;;13.60;99.90;;;;;;6219951;23;20004;-90
2021/10/27 00:04:14;;;;;;;16.92;13.23;;;13.60;99.90;;;;;;6195841;23;20004;-88
2021/10/27 00:06:41;;;;;;;21.23;14.93;;;13.70;99.90;;;;;;6221353;23;20000;-90
2021/10/27 00:09:09;;;;;;;19.42;14.63;;;13.70;99.90;;;;;;6221588;23;19992;-88
2021/10/27 00:11:36;;;;;;;19.90;15.05;;;13.70;99.90;;;;;;6245279;23;19996;-90
2021/10/27 00:14:03;;;;;;;20.35;15.00;;;13.70;99.90;;;;;;6219137;23;19996;-89
2021/10/27 00:16:30;;;;;;;18.23;16.08;;;13.70;99.90;;;;;;6195487;23;20404;-88
2021/10/27 00:18:55;;;;;;;17.90;14.27;;;13.70;99.90;;;;;;6220883;23;20000;-90
2021/10/27 00:21:22;;;;;;;21.27;16.35;;;13.70;99.90;;;;;;6220192;23;20368;-89
2021/10/27 00:23:48;;;;;;;19.35;15.13;;;13.80;99.90;;;;;;6220649;23;20015;-88
2021/10/27 00:26:20;;;;;;;20.55;15.27;;;13.80;99.90;;;;;;6221228;23;20404;-88
2021/10/27 00:28:47;;;;;;;18.65;14.55;;;13.80;99.90;;;;;;6221291;23;20004;-89
2021/10/27 00:31:15;;;;;;;18.80;14.77;;;13.80;99.90;;;;;;6247526;23;20000;-90
2021/10/27 00:33:43;;;;;;;18.75;15.30;;;13.90;99.90;;;;;;6220737;23;20015;-90
2021/10/27 00:36:10;;;;;;;17.70;14.93;;;13.90;99.90;;;;;;6221654;23;19992;-90
2021/10/27 00:38:36;;;;;;;24.08;16.73;;;13.90;99.90;;;;;;6220522;23;20022;-90
2021/10/27 00:41:06;;;;;;;21.25;17.13;;;13.90;99.90;;;;;;6220395;23;20004;-90
2021/10/27 00:43:32;;;;;;;19.42;15.27;;;13.90;99.90;;;;;;6220675;23;20007;-89
2021/10/27 00:45:58;;;;;;;21.98;16.40;;;13.90;99.90;;;;;;6220202;23;20019;-91
2021/10/27 00:48:24;;;;;;;22.02;16.92;;;14.00;99.90;;;;;;6220928;23;20000;-90
2021/10/27 00:50:50;;;;;;;21.52;17.35;;;14.00;99.90;;;;;;6194908;23;20039;-90
2021/10/27 00:53:17;;;;;;;20.00;15.95;;;14.00;99.90;;;;;;6220980;23;20065;-89
2021/10/27 00:55:43;;;;;;;20.38;17.70;;;14.00;99.90;;;;;;6221196;23;20007;-90
2021/10/27 00:58:09;;;;;;;22.85;16.92;;;14.00;99.90;;;;;;6220631;23;20000;-89
2021/10/27 01:00:35;;;;;;;22.13;17.52;;;13.90;99.90;;;;;;6220937;23;20011;-89
2021/10/27 01:03:01;;;;;;;24.55;16.88;;;13.90;99.90;;;;;;6246884;23;20074;-90
2021/10/27 01:05:27;;;;;;;25.08;18.48;;;13.80;99.90;;;;;;6220189;23;20309;-91
2021/10/27 01:07:54;;;;;;;20.10;17.23;;;13.80;99.90;;;;;;6220026;23;19996;-89
2021/10/27 01:10:23;;;;;;;19.52;16.58;;;13.80;99.90;;;;;;6220126;23;20015;-90
2021/10/27 01:12:49;;;;;;;18.95;15.07;;;13.80;99.90;;;;;;6222514;23;19996;-90
2021/10/27 01:15:14;;;;;;;17.30;14.55;;;13.80;99.90;;;;;;6222100;23;20000;-89
2021/10/27 01:17:41;;;;;;;18.85;14.93;;;13.90;99.90;;;;;;6247285;23;19996;-91
2021/10/27 01:20:07;;;;;;;22.55;17.17;;;13.90;99.90;;;;;;6247207;23;20427;-90
2021/10/27 01:22:37;;;;;;;18.27;14.48;;;13.90;99.90;;;;;;6246809;23;20001;-90
2021/10/27 01:25:07;;;;;;;20.15;16.15;;;13.90;99.90;;;;;;6222993;23;20082;-90
2021/10/27 01:27:41;;;;;;;19.27;16.17;;;13.80;99.90;;;;;;6252343;23;20046;-90
2021/10/27 01:30:13;;;;;;;20.33;15.65;;;13.80;99.90;;;;;;6201850;23;20066;-90
2021/10/27 01:32:40;;;;;;;18.08;14.98;;;13.80;99.90;;;;;;6226059;23;20000;-89
2021/10/27 01:35:07;;;;;;;18.90;14.85;;;13.80;99.90;;;;;;6225536;23;20070;-89
2021/10/27 01:37:38;;;;;;;14.75;13.02;;;13.90;99.90;;;;;;6199878;23;20007;-89
2021/10/27 01:40:10;;;;;;;13.77;12.07;;;13.90;99.90;;;;;;6223137;23;20058;-89
2021/10/27 01:42:36;;;;;;;16.33;12.52;;;13.90;99.90;;;;;;6223271;23;20079;-90
2021/10/27 01:45:03;;;;;;;16.42;13.13;;;13.90;99.90;;;;;;6223391;23;20003;-91
2021/10/27 01:47:28;;;;;;;18.27;13.68;;;13.90;99.90;;;;;;6223255;23;20002;-89
2021/10/27 01:49:54;;;;;;;18.10;13.88;;;13.90;99.90;;;;;;6223509;23;20047;-90
2021/10/27 01:52:20;;;;;;;17.45;13.20;;;13.90;99.90;;;;;;6224281;23;20112;-90
2021/10/27 01:54:47;;;;;;;16.20;13.77;;;13.90;99.90;;;;;;6225294;23;20004;-89
2021/10/27 01:57:13;;;;;;;16.77;12.45;;;13.90;99.90;;;;;;6230376;23;20300;-91
2021/10/27 01:59:39;;;;;;;15.43;12.80;;;13.90;99.90;;;;;;6231358;23;20030;-90
2021/10/27 02:02:06;;;;;;;16.83;12.70;;;13.80;99.90;;;;;;6228652;23;20000;-90
2021/10/27 02:04:32;;;;;;;18.63;13.68;;;13.90;99.90;;;;;;6229017;23;20034;-90
2021/10/27 02:06:58;;;;;;;15.15;13.18;;;13.90;99.90;;;;;;6226344;23;20004;-89
2021/10/27 02:09:23;;;;;;;13.27;10.73;;;13.90;99.90;;;;;;6223380;23;20070;-89
2021/10/27 02:11:49;;;;;;;15.18;11.75;;;13.90;99.90;;;;;;6223530;23;20000;-91
2021/10/27 02:14:15;;;;;;;14.63;10.93;;;13.90;99.90;;;;;;6223026;23;20079;-90
2021/10/27 02:16:41;;;;;;;16.67;12.73;;;13.90;99.90;;;;;;6223619;23;20043;-89
2021/10/27 02:19:08;;;;;;;15.13;10.73;;;13.90;99.90;;;;;;6250024;23;20071;-89
2021/10/27 02:21:34;;;;;;;15.90;10.90;;;13.90;99.90;;;;;;6223702;23;20000;-89
2021/10/27 02:24:00;;;;;;;12.90;11.48;;;14.00;99.90;;;;;;6223656;23;20078;-90
2021/10/27 02:26:26;;;;;;;12.38;10.93;;;14.00;99.90;;;;;;6222364;23;19996;-90
2021/10/27 02:28:53;;;;;;;16.35;11.40;;;14.00;99.90;;;;;;6223703;23;20285;-90
2021/10/27 02:31:22;;;;;;;14.70;12.23;;;14.00;99.90;;;;;;6247429;23;20083;-90
2021/10/27 02:33:48;;;;;;;11.63;10.25;;;14.00;99.90;;;;;;6223309;23;20019;-89
2021/10/27 02:36:14;;;;;;;14.32;11.07;;;14.00;99.90;;;;;;6221793;23;19996;-89
2021/10/27 02:38:42;;;;;;;14.70;11.02;;;14.10;99.90;;;;;;6246458;23;20083;-91
2021/10/27 02:41:09;;;;;;;14.02;10.68;;;14.10;99.90;;;;;;6194990;23;20016;-90
2021/10/27 02:43:36;;;;;;;14.18;9.52;;;14.10;99.90;;;;;;6220147;23;20008;-91
2021/10/27 02:46:01;;;;;;;13.02;8.63;;;14.10;99.90;;;;;;6220083;23;20305;-90
2021/10/27 02:48:27;;;;;;;13.10;8.50;;;14.10;99.90;;;;;;6220210;23;20006;-90
2021/10/27 02:50:54;;;;;;;12.35;9.35;;;14.10;99.90;;;;;;6248051;23;20058;-89
2021/10/27 02:53:20;;;;;;;15.85;9.60;;;14.10;99.90;;;;;;6222797;23;20005;-89
2021/10/27 02:55:45;;;;;;;10.05;8.15;;;14.10;99.90;;;;;;6222230;23;20000;-90
2021/10/27 02:58:12;;;;;;;14.32;8.45;;;14.10;99.90;;;;;;6221772;23;20018;-90
2021/10/27 03:00:39;;;;;;;16.23;9.00;;;14.10;99.90;;;;;;6248370;23;20027;-89
2021/10/27 03:03:04;;;;;;;12.50;7.93;;;14.10;99.90;;;;;;6196828;23;20087;-89
2021/10/27 03:05:31;;;;;;;12.05;7.55;;;14.10;99.90;;;;;;6221155;23;20322;-90
2021/10/27 03:07:58;;;;;;;14.30;8.30;;;14.10;99.90;;;;;;6221173;23;20404;-89
2021/10/27 03:10:24;;;;;;;13.88;7.55;;;14.10;99.90;;;;;;6222200;23;20031;-90
2021/10/27 03:12:49;;;;;;;11.88;7.05;;;14.10;99.90;;;;;;6221931;23;19996;-90
2021/10/27 03:15:15;;;;;;;15.68;7.82;;;14.10;99.90;;;;;;6222323;23;20408;-89
2021/10/27 03:17:41;;;;;;;10.48;6.63;;;14.20;99.90;;;;;;6196957;23;20059;-90
2021/10/27 03:20:07;;;;;;;11.57;6.65;;;14.10;99.90;;;;;;6221172;23;20014;-89
2021/10/27 03:22:34;;;;;;;12.50;6.78;;;14.10;99.90;;;;;;6220981;23;20008;-90
2021/10/27 03:25:00;;;;;;;11.95;5.90;;;14.10;99.90;;;;;;6196933;23;20011;-89
2021/10/27 03:27:26;;;;;;;10.30;5.38;;;14.10;99.90;;;;;;6221935;23;19992;-89
2021/10/27 03:29:52;;;;;;;8.75;5.47;;;14.10;99.90;;;;;;6221600;23;20046;-89
2021/10/27 03:32:19;;;;;;;10.07;5.82;;;14.10;99.90;;;;;;6248497;23;20004;-89
2021/10/27 03:34:45;;;;;;;7.72;4.35;;;14.20;99.90;;;;;;6222131;23;20028;-89
2021/10/27 03:37:13;;;;;;;8.80;4.75;;;14.10;99.90;;;;;;6221863;23;19992;-89
2021/10/27 03:39:40;;;;;;;9.57;4.72;;;14.10;99.90;;;;;;6221504;23;20427;-89
2021/10/27 03:42:06;;;;;;;8.20;4.63;;;14.10;99.90;;;;;;6220786;23;20004;-90
2021/10/27 03:44:32;;;;;;;8.23;5.28;;;14.10;99.90;;;;;;6221735;23;20308;-90
2021/10/27 03:46:57;;;;;;;8.65;5.00;;;14.10;99.90;;;;;;6221181;23;20054;-89
2021/10/27 03:49:23;;;;;;;12.43;5.22;;;14.10;99.90;;;;;;6196131;23;20011;-90
2021/10/27 03:51:50;;;;;;;6.22;4.45;;;14.10;99.90;;;;;;6247781;23;20012;-90
2021/10/27 03:54:16;;;;;;;8.10;4.45;;;14.10;99.90;;;;;;6221308;23;20003;-89
2021/10/27 03:56:42;;;;;;;10.05;4.80;;;14.10;99.90;;;;;;6221820;23;20000;-90
2021/10/27 03:59:08;;;;;;;8.13;4.40;;;14.20;99.90;;;;;;6247773;23;20004;-89
2021/10/27 04:01:33;;;;;;;7.78;4.30;;;14.10;99.90;;;;;;6221251;23;20007;-90
2021/10/27 04:03:59;;;;;;;11.15;4.60;;;14.20;99.90;;;;;;6221439;23;19992;-90
2021/10/27 04:06:25;;;;;;;7.80;4.05;;;14.20;99.90;;;;;;6221284;23;20397;-89
2021/10/27 04:08:51;;;;;;;11.27;4.63;;;14.20;99.90;;;;;;6220849;23;20312;-90
2021/10/27 04:11:17;;;;;;;9.07;4.30;;;14.20;99.90;;;;;;6221211;23;20075;-89
2021/10/27 04:13:42;;;;;;;7.28;3.30;;;14.20;99.90;;;;;;6220892;23;20038;-90
2021/10/27 04:16:08;;;;;;;6.78;3.33;;;14.20;99.90;;;;;;6221503;23;19999;-89
2021/10/27 04:18:34;;;;;;;8.18;4.63;;;14.20;99.90;;;;;;6247899;23;20019;-89
2021/10/27 04:21:01;;;;;;;6.22;3.53;;;14.20;99.90;;;;;;6248087;23;20034;-90
2021/10/27 04:23:27;;;;;;;5.55;3.47;;;14.20;99.90;;;;;;6222043;23;20003;-90
2021/10/27 04:25:53;;;;;;;7.90;4.00;;;14.20;99.90;;;;;;6221205;23;20063;-89
2021/10/27 04:28:19;;;;;;;7.82;3.67;;;14.20;99.90;;;;;;6196325;23;20000;-89
2021/10/27 04:30:45;;;;;;;7.18;3.83;;;14.20;99.90;;;;;;6220791;23;20000;-90
2021/10/27 04:33:22;;;;;;;6.72;3.97;;;14.20;99.90;;;;;;6249858;23;19992;-90
2021/10/27 04:35:52;;;;;;;10.35;4.88;;;14.20;99.90;;;;;;6195865;23;20046;-89
2021/10/27 04:38:22;;;;;;;6.10;3.72;;;14.20;99.90;;;;;;6221722;23;20039;-90
2021/10/27 04:40:49;;;;;;;6.57;3.42;;;14.10;99.90;;;;;;6247701;23;20057;-89
2021/10/27 04:43:16;;;;;;;8.75;3.58;;;14.20;99.90;;;;;;6247582;23;19992;-89
2021/10/27 04:45:42;;;;;;;6.78;3.38;;;14.20;99.90;;;;;;6195711;23;20004;-89
2021/10/27 04:48:13;;;;;;;6.90;3.70;;;14.20;99.90;;;;;;6220656;23;20003;-91
2021/10/27 04:50:40;;;;;;;9.85;3.90;;;14.20;99.90;;;;;;6220612;23;20047;-89
2021/10/27 04:53:17;;;;;;;10.07;3.88;;;14.20;99.90;;;;;;6221359;23;20004;-90
2021/10/27 04:55:47;;;;;;;8.98;3.67;;;14.30;99.90;;;;;;6222134;23;19997;-89
2021/10/27 04:58:14;;;;;;;7.43;3.30;;;14.30;99.90;;;;;;6196732;23;20444;-89
2021/10/27 05:00:40;;;;;;;8.48;3.75;;;14.30;99.90;;;;;;6220517;23;20008;-91
2021/10/27 05:03:07;;;;;;;8.88;4.05;;;14.30;99.90;;;;;;6248160;23;20006;-89
2021/10/27 05:05:42;;;;;;;9.23;3.95;;;14.30;99.90;;;;;;6220823;23;20038;-88
2021/10/27 05:08:09;;;;;;;9.02;4.00;;;14.30;99.90;;;;;;6220823;23;20000;-90
2021/10/27 05:10:34;;;;;;;9.35;4.18;;;14.20;99.90;;;;;;6220900;23;20531;-89
2021/10/27 05:13:00;;;;;;;7.05;3.78;;;14.30;99.90;;;;;;6195184;23;20037;-90
2021/10/27 05:15:29;;;;;;;6.68;3.53;;;14.20;99.90;;;;;;6220351;23;19999;-89
2021/10/27 05:17:54;;;;;;;8.32;3.42;;;14.30;99.90;;;;;;6220515;23;20427;-89
2021/10/27 05:20:20;;;;;;;9.77;4.15;;;14.20;99.90;;;;;;6220300;23;20008;-89
2021/10/27 05:22:46;;;;;;;6.45;3.28;;;14.20;99.90;;;;;;6219582;23;20317;-89
2021/10/27 05:25:11;;;;;;;7.55;3.67;;;14.20;99.90;;;;;;6247681;23;20072;-89
2021/10/27 05:27:37;;;;;;;5.57;3.33;;;14.20;99.90;;;;;;6220205;23;19993;-89
2021/10/27 05:30:06;;;;;;;6.05;3.13;;;14.20;99.90;;;;;;6221002;23;20079;-90
2021/10/27 05:32:36;;;;;;;9.40;3.40;;;14.20;99.90;;;;;;6195377;23;20062;-87
2021/10/27 05:35:02;;;;;;;7.35;3.67;;;14.20;99.90;;;;;;6220796;23;20051;-86
2021/10/27 05:37:27;;;;;;;9.05;3.60;;;14.20;99.90;;;;;;6220717;23;19996;-87
2021/10/27 05:39:55;;;;;;;6.93;2.97;;;14.20;99.90;;;;;;6220330;23;20433;-87
2021/10/27 05:42:22;;;;;;;5.93;3.28;;;14.20;99.90;;;;;;6220055;23;19999;-90
2021/10/27 05:44:51;;;;;;;6.70;3.70;;;14.20;99.90;;;;;;6220655;23;20000;-90
2021/10/27 05:47:17;;;;;;;7.93;3.85;;;14.20;99.90;;;;;;6220838;23;20050;-89
2021/10/27 05:49:52;;;;;;;7.03;3.67;;;14.20;99.90;;;;;;6195418;22;20062;-90
2021/10/27 05:55:27;;;;;;;5.15;3.28;;;14.10;99.90;;;;;;6200483;23;20487;-89
2021/10/27 05:57:54;;;;;;;7.70;3.38;;;14.10;99.90;;;;;;6220341;23;20001;-87
2021/10/27 06:00:20;;;;;;;7.97;3.80;;;14.10;99.90;;;;;;6220495;23;20478;-87
2021/10/27 06:02:46;;;;;;;9.38;4.03;;;14.10;99.90;;;;;;6220357;23;19996;-87
2021/10/27 06:05:12;;;;;;;8.60;3.95;;;14.10;99.90;;;;;;6219665;23;20032;-88
2021/10/27 06:07:38;;;;;;;5.70;3.72;;;14.10;99.90;;;;;;6220115;23;20077;-88
2021/10/27 06:10:05;;;;;;;8.50;3.60;;;14.10;99.90;;;;;;6220786;23;20004;-88
2021/10/27 06:12:31;;;;;;;6.63;3.40;;;14.00;99.90;;;;;;6220715;23;20450;-88
2021/10/27 06:14:56;;;;;;;5.43;3.60;;;14.00;99.90;;;;;;6224302;23;20031;-88
2021/10/27 06:17:26;;;;;;;8.13;4.78;;;14.00;99.90;;;;;;6193441;23;20001;-88
2021/10/27 06:19:54;;;;;;;7.00;3.83;;;14.00;99.90;;;;;;6210341;23;20032;-88
2021/10/27 06:22:21;;;;;;;10.55;3.75;;;14.00;99.90;;;;;;6221006;23;20000;-88
2021/10/27 06:24:47;;;;;;;7.30;3.67;;;14.00;99.90;;;;;;6222290;23;20126;-88
2021/10/27 06:27:16;;;;;;;9.85;4.00;;;14.00;99.90;;;;;;6248385;23;20420;-88
2021/10/27 06:30:05;;;;;;;9.75;4.47;;;14.10;99.90;;;;;;6197318;23;20061;-88
2021/10/27 06:32:49;;;;;;;7.93;4.38;;;14.00;99.90;;;;;;6221900;23;20032;-89
2021/10/27 06:35:22;;;;;;;9.80;4.68;;;14.00;99.90;;;;;;6221915;23;20420;-88
2021/10/27 06:46:24;;;;;;;8.32;4.55;;;14.00;99.90;;;;;;6248780;23;20054;-88
2021/10/27 06:48:46;;;;;;;9.38;4.88;;;14.00;99.90;;;;;;6248548;23;20000;-88
2021/10/27 06:51:15;;;;;;;7.95;4.30;;;14.00;99.90;;;;;;6221860;23;20349;-88
2021/10/27 06:53:42;;;;;;;14.25;5.43;;;13.90;99.90;;;;;;6248939;23;20046;-88
2021/10/27 06:56:14;;;;;;;7.95;5.25;;;13.90;99.90;;;;;;6222128;23;20000;-88
2021/10/27 06:58:48;;;;;;;10.00;5.63;;;13.90;99.90;;;;;;6223784;23;20012;-88
2021/10/27 07:01:21;;;;;;;11.20;5.65;;;13.90;99.90;;;;;;6248672;23;20038;-88
2021/10/27 07:17:14;;;;;;;9.35;5.25;;;13.90;99.90;;;;;;6248642;23;20011;-88
2021/10/27 07:19:47;;;;;;;15.40;6.00;;;13.90;99.90;;;;;;6221228;23;20035;-88
2021/10/27 07:22:14;;;;;;;11.65;5.35;;;13.90;99.90;;;;;;6168089;23;20005;-89
2021/10/27 07:24:44;;;;;;;11.77;5.57;;;13.90;99.90;;;;;;6220968;23;20035;-89
2021/10/27 07:27:14;;;;;;;10.23;5.20;;;14.00;99.90;;;;;;6220825;23;20359;-89
2021/10/27 07:29:44;;;;;;;13.98;6.88;;;14.00;99.90;;;;;;6221477;23;19996;-89
2021/10/27 07:32:15;;;;;;;10.10;5.72;;;14.00;99.90;;;;;;6221612;23;20035;-89
2021/10/27 07:34:51;;;;;;;9.45;5.80;;;14.00;99.90;;;;;;6249610;23;19996;-89
2021/10/27 07:40:33;;;;;;;13.05;6.20;;;14.10;99.90;;;;;;6248318;23;20435;-89
2021/10/27 07:43:10;;;;;;;11.77;5.85;;;14.20;99.90;;;;;;6246867;23;19996;-89
2021/10/27 07:45:40;;;;;;;10.75;5.68;;;14.20;99.90;;;;;;6248611;23;19993;-89
2021/10/27 07:48:07;;;;;;;10.88;6.50;;;14.20;99.90;;;;;;6248380;23;19999;-89
2021/10/27 07:50:35;;;;;;;11.40;6.18;;;14.20;99.90;;;;;;6221353;23;20039;-89
2021/10/27 07:53:07;;;;;;;8.63;5.65;;;14.20;99.90;;;;;;6248173;23;20016;-89
2021/10/27 07:55:34;;;;;;;14.05;7.95;;;14.20;99.90;;;;;;6222414;23;19996;-90
2021/10/27 07:58:01;;;;;;;14.07;8.20;;;14.20;99.90;;;;;;6223779;23;19996;-88
2021/10/27 08:00:29;;;;;;;16.58;6.97;;;14.20;99.90;;;;;;6221989;23;20008;-89
2021/10/27 08:03:00;;;;;;;10.68;5.97;;;14.20;99.90;;;;;;6221572;23;19996;-88
2021/10/27 08:05:38;;;;;;;10.75;6.22;;;14.20;99.90;;;;;;6248044;23;20400;-88
2021/10/27 08:08:06;;;;;;;11.80;6.60;;;14.20;99.90;;;;;;6221139;23;20309;-88
2021/10/27 08:10:32;;;;;;;11.57;6.20;;;14.20;99.90;;;;;;6220573;23;20000;-89
2021/10/27 08:12:59;;;;;;;10.50;6.80;;;14.20;99.90;;;;;;6220894;23;20022;-89
2021/10/27 08:15:25;;;;;;;8.52;5.80;;;14.20;99.90;;;;;;6221504;23;20416;-88
2021/10/27 08:17:52;;;;;;;9.18;5.70;;;14.20;99.90;;;;;;6221705;23;19996;-88
2021/10/27 08:20:22;;;;;;;9.57;5.95;;;14.30;99.90;;;;;;6221295;23;20012;-88
2021/10/27 08:23:02;;;;;;;12.02;6.90;;;14.40;99.90;;;;;;6247845;23;19996;-89
2021/10/27 08:25:35;;;;;;;10.48;6.25;;;14.50;99.90;;;;;;6221120;23;20007;-88
2021/10/27 08:28:38;;;;;;;10.65;5.88;;;14.60;99.90;;;;;;6247751;23;19996;-88
2021/10/27 08:33:44;;;;;;;10.38;6.20;;;14.90;99.90;;;;;;6248060;23;20030;-89
2021/10/27 08:36:09;;;;;;;10.77;6.53;;;15.00;99.90;;;;;;6220569;23;20000;-89
2021/10/27 08:38:35;;;;;;;10.68;6.55;;;15.10;99.90;;;;;;6195915;23;20007;-89
2021/10/27 08:41:12;;;;;;;11.43;7.30;;;15.20;99.90;;;;;;6247130;23;20004;-89
2021/10/27 08:43:39;;;;;;;10.40;7.20;;;15.20;99.90;;;;;;6221436;23;20024;-89
2021/10/27 08:46:12;;;;;;;8.45;6.38;;;15.10;99.90;;;;;;6248016;23;19996;-88
2021/10/27 08:48:39;;;;;;;10.13;6.78;;;15.10;99.90;;;;;;6220666;23;20079;-89
2021/10/27 08:51:06;;;;;;;10.80;5.93;;;15.00;99.90;;;;;;6220725;23;20023;-89
2021/10/27 08:53:36;;;;;;;8.65;6.63;;;15.00;99.90;;;;;;6196156;23;20008;-89
2021/10/27 08:56:09;;;;;;;10.65;6.38;;;15.10;99.90;;;;;;6247721;23;19996;-89
2021/10/27 08:59:04;;;;;;;11.02;6.80;;;15.00;99.90;;;;;;6221228;23;20031;-88
2021/10/27 09:39:01;;;;;;;10.18;5.97;;;17.80;99.90;;;;;;6224141;23;20011;-88
2021/10/27 10:06:24;;;;;;;8.30;5.00;;;22.90;99.90;;;;;;6218472;23;20039;-89
2021/10/27 10:08:50;;;;;;;8.07;4.53;;;22.80;99.90;;;;;;6192267;23;19996;-89
2021/10/27 10:11:20;;;;;;;8.05;4.63;;;22.60;99.90;;;;;;6215583;23;20085;-89
2021/10/27 10:13:47;;;;;;;6.63;4.25;;;22.40;99.90;;;;;;6168696;23;20367;-88
2021/10/27 10:16:14;;;;;;;6.97;4.78;;;22.80;99.90;;;;;;6191864;23;19997;-89
2021/10/27 10:18:42;;;;;;;7.30;4.90;;;23.10;99.90;;;;;;6191682;23;20421;-88
2021/10/27 10:21:14;;;;;;;7.95;4.60;;;22.60;99.90;;;;;;6191790;23;20012;-89
2021/10/27 10:23:40;;;;;;;10.68;5.78;;;22.70;99.90;;;;;;6167880;23;20103;-88
2021/10/27 10:26:13;;;;;;;9.73;5.45;;;23.00;99.90;;;;;;6217506;23;20000;-88
2021/10/27 10:28:44;;;;;;;6.15;4.00;;;23.20;99.90;;;;;;6192000;23;20024;-88
2021/10/27 10:31:12;;;;;;;7.05;4.07;;;23.50;99.90;;;;;;6216561;23;20019;-89
2021/10/27 10:33:48;;;;;;;6.00;3.58;;;23.80;99.90;;;;;;6191757;23;20008;-88
2021/10/27 10:36:24;;;;;;;6.38;3.40;;;23.70;99.90;;;;;;6191618;23;19996;-90
2021/10/27 10:39:22;;;;;;;6.88;3.83;;;23.90;99.90;;;;;;6192917;23;20004;-89
2021/10/27 10:45:08;;;;;;;5.18;3.38;;;24.00;99.90;;;;;;6107920;23;20330;-89
2021/10/27 11:03:39;;;;;;;5.28;3.40;;;22.20;99.90;;;;;;6185393;23;20020;-89
2021/10/27 11:26:59;;;;;;;5.30;3.03;;;19.00;99.90;;;;;;6096724;23;20355;-88
2021/10/27 11:37:54;;;;;;;9.40;4.80;;;18.20;99.90;;;;;;6226526;23;20026;-89
2021/10/27 11:40:42;;;;;;;9.27;4.82;;;17.90;99.90;;;;;;6221718;23;20004;-91
2021/10/27 11:43:17;;;;;;;9.60;4.25;;;17.80;99.90;;;;;;6197453;23;20058;-88
2021/10/27 11:48:28;;;;;;;7.85;4.88;;;17.60;99.90;;;;;;6258273;23;20003;-88
2021/10/27 11:51:17;;;;;;;7.35;4.10;;;17.60;99.90;;;;;;6246192;23;20023;-89
2021/10/27 11:54:12;;;;;;;7.45;4.60;;;17.60;99.90;;;;;;6247449;23;20001;-88
2021/10/27 11:56:38;;;;;;;7.78;4.88;;;17.50;99.90;;;;;;6221279;23;20034;-89
2021/10/27 11:59:07;;;;;;;9.75;4.82;;;17.50;99.90;;;;;;6221595;23;20003;-88
2021/10/27 12:01:34;;;;;;;7.22;4.20;;;17.50;99.90;;;;;;6220857;23;20067;-88
2021/10/27 12:04:10;;;;;;;10.35;5.07;;;17.50;99.90;;;;;;6220973;23;19993;-89
2021/10/27 12:06:59;;;;;;;6.88;4.20;;;17.50;99.90;;;;;;6221184;23;20007;-89
2021/10/27 12:09:46;;;;;;;7.20;5.30;;;17.50;99.90;;;;;;6221396;23;20051;-89
2021/10/27 12:12:33;;;;;;;8.88;4.55;;;17.50;99.90;;;;;;6220793;23;20007;-89
2021/10/27 12:17:59;;;;;;;5.80;3.65;;;17.60;99.90;;;;;;6258110;23;19996;-88
2021/10/27 12:20:46;;;;;;;6.65;4.28;;;17.70;99.90;;;;;;6220638;23;20289;-89
2021/10/27 12:23:16;;;;;;;5.97;4.53;;;17.70;99.90;;;;;;6219966;23;20388;-90
2021/10/27 12:25:54;;;;;;;9.07;4.72;;;17.80;99.90;;;;;;6247656;23;20051;-89
2021/10/27 12:28:35;;;;;;;10.23;5.40;;;17.80;99.90;;;;;;6220810;23;20000;-89
2021/10/27 12:31:20;;;;;;;9.57;5.00;;;17.90;99.90;;;;;;6220921;23;20008;-89
2021/10/27 12:33:48;;;;;;;8.65;5.10;;;17.80;99.90;;;;;;6221388;23;19999;-89
2021/10/27 12:36:33;;;;;;;10.07;5.20;;;17.80;99.90;;;;;;6220499;23;20030;-89
2021/10/27 12:39:25;;;;;;;7.88;5.45;;;18.00;99.90;;;;;;6220544;23;20026;-89
2021/10/27 12:42:08;;;;;;;9.00;5.25;;;18.00;99.90;;;;;;6220523;23;20042;-88
2021/10/27 12:44:43;;;;;;;;;;;17.90;99.90;;;;;;6221446;23;20011;-89
2021/10/27 12:47:11;;;;;;;7.70;4.90;;;17.70;99.90;;;;;;6218600;23;19998;-88
2021/10/27 12:49:39;;;;;;;7.47;4.90;;;17.60;99.90;;;;;;6221013;23;20006;-88
2021/10/27 12:52:27;;;;;;;8.77;5.10;;;17.60;99.90;;;;;;6239755;22;20012;-90
2021/10/27 12:55:33;;;;;;;7.97;4.80;;;17.70;99.90;;;;;;6215394;23;20024;-88
2021/10/27 12:58:06;;;;;;;8.95;4.95;;;17.80;99.90;;;;;;6134163;23;20120;-89
2021/10/27 13:01:02;;;;;;;9.35;5.40;;;18.60;99.90;;;;;;6242790;23;20008;-90
2021/10/27 13:12:14;;;;;;;10.45;5.05;;;18.60;99.90;;;;;;6250166;23;20016;-88
2021/10/27 13:33:11;;;;;;;6.70;3.63;;;21.10;99.90;;;;;;6182784;23;20404;-89
2021/10/27 13:35:37;;;;;;;8.23;4.97;;;21.00;99.90;;;;;;6247984;23;19996;-90
2021/10/27 13:38:17;;;;;;;6.13;3.75;;;20.50;99.90;;;;;;6220241;23;20075;-89
2021/10/27 13:40:46;;;;;;;9.10;3.90;;;20.00;99.90;;;;;;6246881;23;20490;-88
2021/10/27 13:49:20;;;;;;;5.85;3.17;;;19.50;99.90;;;;;;6246879;23;20011;-89
2021/10/27 14:08:31;;;;;;;8.52;5.10;;;18.20;99.90;;;;;;6223969;23;20069;-88
2021/10/27 14:47:29;;;;;;;8.27;4.18;;;17.20;99.90;;;;;;6248574;23;20067;-87
2021/10/27 15:52:19;;;;;;;4.80;2.47;;;15.90;99.90;;;;;;6248691;23;20042;-88
2021/10/27 15:54:51;;;;;;;4.70;2.38;;;15.80;99.90;;;;;;6221290;23;20278;-87
2021/10/27 15:57:21;;;;;;;5.50;2.97;;;15.80;99.90;;;;;;6221693;23;20000;-88
2021/10/27 15:59:46;;;;;;;6.90;2.92;;;15.70;99.90;;;;;;6221398;23;20312;-88
2021/10/27 16:02:13;;;;;;;4.45;2.60;;;15.70;99.90;;;;;;6221340;23;20004;-88
2021/10/27 16:04:45;;;;;;;3.70;2.60;;;15.60;99.90;;;;;;6221298;23;20032;-88
2021/10/27 16:07:20;;;;;;;2.80;1.92;;;15.60;99.90;;;;;;6221331;23;20075;-88
2021/10/27 16:10:12;;;;;;;5.60;2.80;;;15.50;99.90;;;;;;6220925;23;19992;-88
2021/10/27 16:12:47;;;;;;;4.68;2.63;;;15.50;99.90;;;;;;6219921;23;20083;-88
2021/10/27 16:15:34;;;;;;;3.92;2.38;;;15.40;99.90;;;;;;6221655;23;20431;-88
2021/10/27 16:18:22;;;;;;;4.93;2.67;;;15.30;99.90;;;;;;6222443;23;20008;-88
2021/10/27 16:21:25;;;;;;;5.50;2.72;;;15.30;99.90;;;;;;6198402;23;20004;-88
2021/10/27 16:24:02;;;;;;;4.57;2.10;;;15.20;99.90;;;;;;6215584;23;20482;-88
2021/10/27 16:26:27;;;;;;;5.32;2.40;;;15.20;99.90;;;;;;6220994;23;20050;-88
2021/10/27 16:28:56;;;;;;;4.32;2.08;;;15.10;99.90;;;;;;6220956;23;19999;-88
2021/10/27 16:31:26;;;;;;;6.10;2.40;;;15.00;99.90;;;;;;6220826;23;20353;-88
2021/10/27 16:33:52;;;;;;;4.90;2.30;;;15.00;99.90;;;;;;6220593;23;20011;-88
2021/10/27 16:36:22;;;;;;;4.53;2.30;;;15.00;99.90;;;;;;6221157;23;20548;-88
2021/10/27 16:38:50;;;;;;;5.50;2.45;;;14.90;99.90;;;;;;6220775;23;20000;-88
2021/10/27 16:41:18;;;;;;;7.47;2.78;;;14.90;99.90;;;;;;6169992;23;20020;-89
2021/10/27 16:43:48;;;;;;;5.95;2.88;;;14.80;99.90;;;;;;6221317;23;20024;-88
2021/10/27 16:46:16;;;;;;;4.40;2.55;;;14.80;99.90;;;;;;6195574;23;20063;-87
2021/10/27 16:48:44;;;;;;;5.47;3.08;;;14.70;99.90;;;;;;6246301;23;20435;-88
2021/10/27 16:51:10;;;;;;;4.53;2.67;;;14.70;99.90;;;;;;6220155;23;20242;-88
2021/10/27 16:56:46;;;;;;;5.72;2.90;;;14.60;99.90;;;;;;6247670;23;20003;-88
2021/10/27 16:59:12;;;;;;;3.85;2.65;;;14.60;99.90;;;;;;6220685;23;20007;-88
2021/10/27 17:01:39;;;;;;;5.63;3.13;;;14.50;99.90;;;;;;6246740;23;20023;-88
2021/10/27 17:04:05;;;;;;;4.82;3.33;;;14.50;99.90;;;;;;6220772;23;20000;-88
2021/10/27 17:06:35;;;;;;;5.90;3.40;;;14.40;99.90;;;;;;6220972;23;20489;-88
2021/10/27 17:09:02;;;;;;;4.93;2.92;;;14.40;99.90;;;;;;6247093;23;20049;-88
2021/10/27 17:11:29;;;;;;;6.25;3.53;;;14.40;99.90;;;;;;6195350;23;20082;-88
2021/10/27 17:13:55;;;;;;;5.38;3.22;;;14.40;99.90;;;;;;6247591;23;20004;-88
2021/10/27 17:16:32;;;;;;;6.47;2.75;;;14.30;99.90;;;;;;6220225;23;20376;-88
2021/10/27 17:19:00;;;;;;;6.38;3.17;;;14.30;99.90;;;;;;6247337;23;20003;-88
2021/10/27 17:21:31;;;;;;;8.00;3.83;;;14.20;99.90;;;;;;6246804;23;20078;-88
2021/10/27 17:24:00;;;;;;;5.82;3.30;;;14.20;99.90;;;;;;6219970;23;20062;-88
2021/10/27 17:26:28;;;;;;;5.28;3.35;;;14.20;99.90;;;;;;6247314;23;20063;-88
2021/10/27 17:28:57;;;;;;;6.40;3.30;;;14.20;99.90;;;;;;6219739;23;20046;-88
2021/10/27 17:31:23;;;;;;;6.68;4.25;;;14.20;99.90;;;;;;6219757;23;20000;-87
2021/10/27 17:33:50;;;;;;;6.18;3.63;;;14.20;99.90;;;;;;6220182;23;20019;-88
2021/10/27 17:36:17;;;;;;;4.97;3.42;;;14.10;99.90;;;;;;6220228;23;19996;-88
2021/10/27 17:38:43;;;;;;;7.82;4.18;;;14.10;99.90;;;;;;6219376;23;19996;-87
2021/10/27 17:41:12;;;;;;;6.47;4.28;;;14.10;99.90;;;;;;6219683;23;20008;-88
2021/10/27 17:43:38;;;;;;;6.35;4.38;;;14.00;99.90;;;;;;6194397;23;20004;-87
2021/10/27 17:46:08;;;;;;;5.82;4.15;;;14.00;99.90;;;;;;6220910;23;20278;-88
2021/10/27 17:48:47;;;;;;;7.88;4.55;;;14.00;99.90;;;;;;6218627;23;20026;-88
2021/10/27 17:51:20;;;;;;;6.95;4.22;;;14.00;99.90;;;;;;6219752;23;20012;-88
2021/10/27 17:59:15;;;;;;;8.05;4.55;;;13.90;99.90;;;;;;6246859;23;20011;-88